createdAt,value
2019-01-28T00:01:00.653Z,58.77
2019-01-28T00:03:29.383Z,53.60
2019-01-28T00:05:58.100Z,45.57
2019-01-28T00:08:27.207Z,43.30
2019-01-28T00:10:55.924Z,44.80
2019-01-28T00:13:24.649Z,45.20
2019-01-28T00:15:54.304Z,45.20
2019-01-28T00:18:23.029Z,52.90
2019-01-28T00:20:51.752Z,51.67
2019-01-28T00:23:20.616Z,44.40
2019-01-28T00:25:49.335Z,38.90
2019-01-28T00:28:18.096Z,35.60
2019-01-28T00:30:47.083Z,31.90
2019-01-28T00:33:15.807Z,30.00
2019-01-28T00:35:44.532Z,29.13
2019-01-28T00:38:13.484Z,31.17
2019-01-28T00:40:42.208Z,35.67
2019-01-28T00:43:10.926Z,36.40
2019-01-28T00:45:39.812Z,38.93
2019-01-28T00:48:08.595Z,41.10
2019-01-28T00:50:37.312Z,29.80
2019-01-28T00:53:06.484Z,25.53
2019-01-28T00:55:35.207Z,29.20
2019-01-28T00:58:04.238Z,30.77
2019-01-28T01:00:33.724Z,27.63
2019-01-28T01:03:02.442Z,24.60
2019-01-28T01:05:31.359Z,23.60
2019-01-28T01:08:00.131Z,23.83
2019-01-28T01:10:28.853Z,23.37
2019-01-28T01:12:57.572Z,23.13
2019-01-28T01:15:26.834Z,22.70
2019-01-28T01:17:55.572Z,22.60
2019-01-28T01:20:24.294Z,30.17
2019-01-28T01:22:53.053Z,37.63
2019-01-28T01:25:21.873Z,34.43
2019-01-28T01:27:50.590Z,27.83
2019-01-28T01:30:19.644Z,29.07
2019-01-28T01:32:48.363Z,25.77
2019-01-28T01:35:17.099Z,26.40
2019-01-28T01:37:46.049Z,26.40
2019-01-28T01:40:16.267Z,26.70
2019-01-28T01:42:45.091Z,30.97
2019-01-28T01:45:18.518Z,30.33
2019-01-28T01:47:47.236Z,25.03
2019-01-28T01:50:16.015Z,23.40
2019-01-28T01:52:44.945Z,21.40
2019-01-28T01:55:14.562Z,25.10
2019-01-28T01:57:43.280Z,29.47
2019-01-28T02:00:14.845Z,30.93
2019-01-28T02:02:43.562Z,32.67
2019-01-28T02:05:12.374Z,27.57
2019-01-28T02:07:41.136Z,29.97
2019-01-28T02:10:12.352Z,27.70
2019-01-28T02:12:41.071Z,23.40
2019-01-28T02:15:13.136Z,19.83
2019-01-28T02:17:41.852Z,18.83
2019-01-28T02:20:11.678Z,18.53
2019-01-28T02:22:40.907Z,19.27
2019-01-28T02:25:12.205Z,19.03
2019-01-28T02:27:40.931Z,18.90
2019-01-28T02:30:12.696Z,20.37
2019-01-28T02:32:41.409Z,20.67
2019-01-28T02:35:10.754Z,20.20
2019-01-28T02:37:39.781Z,21.53
2019-01-28T02:40:14.522Z,22.93
2019-01-28T02:42:43.239Z,22.80
2019-01-28T02:45:14.194Z,22.83
2019-01-28T02:47:42.916Z,23.03
2019-01-28T02:50:16.314Z,24.67
2019-01-28T02:52:45.077Z,22.53
2019-01-28T02:55:14.473Z,23.20
2019-01-28T02:57:43.186Z,25.00
2019-01-28T03:00:20.788Z,24.10
2019-01-28T03:02:49.502Z,23.80
2019-01-28T03:05:18.842Z,23.83
2019-01-28T03:07:47.684Z,24.53
2019-01-28T03:10:21.087Z,24.03
2019-01-28T03:12:49.803Z,24.67
2019-01-28T03:15:18.903Z,25.47
2019-01-28T03:17:47.826Z,26.83
2019-01-28T03:20:18.053Z,26.10
2019-01-28T03:22:46.928Z,26.80
2019-01-28T03:25:18.167Z,29.27
2019-01-28T03:27:46.858Z,29.37
2019-01-28T03:30:18.562Z,28.63
2019-01-28T03:32:47.460Z,29.20
2019-01-28T03:35:16.275Z,29.53
2019-01-28T03:37:45.082Z,29.50
2019-01-28T03:40:19.176Z,29.90
2019-01-28T03:42:48.197Z,27.97
2019-01-28T03:45:19.384Z,29.43
2019-01-28T03:47:48.099Z,29.83
2019-01-28T03:50:18.733Z,30.73
2019-01-28T03:52:47.809Z,31.33
2019-01-28T03:55:16.520Z,29.73
2019-01-28T03:57:45.350Z,32.20
2019-01-28T04:00:19.615Z,28.03
2019-01-28T04:02:48.536Z,28.07
2019-01-28T04:05:17.270Z,34.30
2019-01-28T04:07:46.032Z,39.47
2019-01-28T04:10:17.437Z,32.00
2019-01-28T04:12:46.154Z,29.33
2019-01-28T04:15:17.855Z,29.90
2019-01-28T04:17:46.585Z,28.97
2019-01-28T04:20:16.625Z,29.10
2019-01-28T04:22:45.829Z,33.10
2019-01-28T04:25:14.871Z,43.17
2019-01-28T04:27:43.607Z,43.67
2019-01-28T04:30:17.717Z,33.63
2019-01-28T04:32:46.546Z,27.17
2019-01-28T04:35:15.350Z,26.20
2019-01-28T04:37:44.146Z,25.77
2019-01-28T04:40:15.188Z,25.03
2019-01-28T04:42:43.978Z,26.43
2019-01-28T04:45:18.062Z,27.80
2019-01-28T04:47:47.681Z,28.20
2019-01-28T04:50:23.668Z,27.87
2019-01-28T04:52:52.545Z,26.90
2019-01-28T04:55:21.361Z,27.27
2019-01-28T04:57:50.083Z,27.23
2019-01-28T05:00:26.352Z,29.10
2019-01-28T05:02:55.173Z,29.20
2019-01-28T05:05:23.882Z,31.57
2019-01-28T05:07:52.779Z,33.07
2019-01-28T05:10:22.455Z,32.97
2019-01-28T05:12:51.171Z,33.50
2019-01-28T05:15:21.610Z,34.40
2019-01-28T05:17:50.330Z,36.73
2019-01-28T05:20:21.247Z,41.03
2019-01-28T05:22:50.135Z,44.77
2019-01-28T05:25:18.872Z,45.27
2019-01-28T05:27:47.566Z,51.80
2019-01-28T05:30:22.009Z,57.20
2019-01-28T05:32:50.832Z,65.60
2019-01-28T05:35:20.659Z,61.90
2019-01-28T05:37:49.531Z,45.57
2019-01-28T05:40:20.363Z,49.80
2019-01-28T05:42:49.081Z,49.63
2019-01-28T05:45:19.648Z,45.63
2019-01-28T05:47:48.373Z,43.27
2019-01-28T05:50:17.296Z,47.63
2019-01-28T05:52:46.260Z,44.97
2019-01-28T05:55:17.085Z,44.20
2019-01-28T05:57:45.802Z,62.67
2019-01-28T06:00:21.129Z,72.40
2019-01-28T06:02:49.827Z,88.23
2019-01-28T06:05:18.658Z,114.97
2019-01-28T06:07:47.429Z,73.27
2019-01-28T06:10:16.550Z,78.43
2019-01-28T06:12:45.284Z,107.67
2019-01-28T06:15:19.434Z,129.67
2019-01-28T06:17:48.157Z,98.80
2019-01-28T06:20:24.957Z,125.53
2019-01-28T06:22:53.686Z,134.83
2019-01-28T06:25:22.723Z,144.10
2019-01-28T06:27:51.484Z,119.47
2019-01-28T06:30:22.977Z,84.53
2019-01-28T06:32:51.704Z,71.27
2019-01-28T06:35:20.477Z,78.00
2019-01-28T06:37:49.217Z,80.30
2019-01-28T06:40:20.724Z,89.50
2019-01-28T06:42:49.491Z,78.33
2019-01-28T06:45:18.213Z,87.50
2019-01-28T06:47:47.308Z,73.13
2019-01-28T06:50:19.007Z,69.63
2019-01-28T06:52:47.733Z,53.03
2019-01-28T06:55:16.656Z,68.07
2019-01-28T06:57:45.950Z,40.63
2019-01-28T07:00:26.569Z,36.67
2019-01-28T07:02:55.973Z,37.27
2019-01-28T07:05:24.788Z,42.47
2019-01-28T07:07:53.522Z,40.10
2019-01-28T07:10:22.322Z,85.40
2019-01-28T07:12:51.043Z,146.50
2019-01-28T07:15:21.963Z,51.43
2019-01-28T07:17:55.062Z,45.53
2019-01-28T07:20:25.415Z,43.70
2019-01-28T07:22:54.138Z,63.13
2019-01-28T07:25:23.036Z,73.90
2019-01-28T07:27:51.755Z,53.03
2019-01-28T07:30:26.342Z,49.37
2019-01-28T07:32:55.098Z,47.13
2019-01-28T07:35:23.822Z,54.07
2019-01-28T07:37:52.536Z,56.97
2019-01-28T07:40:21.420Z,73.90
2019-01-28T07:42:50.119Z,62.70
2019-01-28T07:45:30.324Z,57.17
2019-01-28T07:48:03.116Z,55.17
2019-01-28T07:50:29.490Z,62.43
2019-01-28T07:52:58.785Z,51.13
2019-01-28T07:55:27.714Z,42.20
2019-01-28T07:57:56.533Z,49.87
2019-01-28T08:00:29.855Z,41.53
2019-01-28T08:02:58.572Z,35.23
2019-01-28T08:05:27.751Z,37.73
2019-01-28T08:07:56.541Z,37.47
2019-01-28T08:10:25.259Z,78.43
2019-01-28T08:12:54.282Z,49.40
2019-01-28T08:15:25.493Z,51.77
2019-01-28T08:17:54.222Z,44.20
2019-01-28T08:20:23.042Z,67.43
2019-01-28T08:22:51.800Z,80.77
2019-01-28T08:25:21.729Z,63.47
2019-01-28T08:27:50.954Z,61.17
2019-01-28T08:30:25.361Z,67.83
2019-01-28T08:32:54.086Z,59.43
2019-01-28T08:35:23.810Z,54.47
2019-01-28T08:37:52.677Z,52.30
2019-01-28T08:40:22.528Z,52.87
2019-01-28T08:42:51.244Z,52.87
2019-01-28T08:45:20.314Z,42.93
2019-01-28T08:47:49.042Z,48.90
2019-01-28T08:50:21.570Z,46.70
2019-01-28T08:52:50.372Z,40.97
2019-01-28T08:55:21.578Z,36.47
2019-01-28T08:57:50.706Z,38.13
2019-01-28T09:00:22.334Z,36.90
2019-01-28T09:02:51.067Z,39.27
2019-01-28T09:05:22.323Z,38.10
2019-01-28T09:07:51.426Z,38.37
2019-01-28T09:10:28.032Z,37.33
2019-01-28T09:12:56.891Z,37.07
2019-01-28T09:15:26.819Z,38.43
2019-01-28T09:17:56.145Z,35.90
2019-01-28T09:20:30.167Z,35.90
2019-01-28T09:22:58.897Z,36.13
2019-01-28T09:25:27.622Z,35.30
2019-01-28T09:27:56.602Z,36.43
2019-01-28T09:30:33.887Z,37.00
2019-01-28T09:33:03.184Z,34.30
2019-01-28T09:35:32.068Z,32.90
2019-01-28T09:38:00.903Z,32.90
2019-01-28T09:40:33.148Z,34.27
2019-01-28T09:43:01.867Z,33.87
2019-01-28T09:45:32.818Z,33.03
2019-01-28T09:48:01.713Z,31.50
2019-01-28T09:50:30.546Z,30.50
2019-01-28T09:52:59.776Z,32.53
2019-01-28T09:55:28.591Z,30.57
2019-01-28T09:57:57.307Z,31.93
2019-01-28T10:00:31.651Z,30.10
2019-01-28T10:03:00.477Z,32.17
2019-01-28T10:05:29.194Z,33.57
2019-01-28T10:07:57.929Z,34.37
2019-01-28T10:10:27.052Z,33.50
2019-01-28T10:12:55.869Z,35.47
2019-01-28T10:15:28.631Z,34.97
2019-01-28T10:17:57.006Z,33.10
2019-01-28T10:20:30.921Z,32.90
2019-01-28T10:22:59.735Z,33.93
2019-01-28T10:25:28.691Z,39.53
2019-01-28T10:27:57.517Z,37.37
2019-01-28T10:30:28.966Z,44.83
2019-01-28T10:32:57.919Z,32.57
2019-01-28T10:35:28.447Z,31.80
2019-01-28T10:37:57.272Z,30.93
2019-01-28T10:40:29.395Z,30.70
2019-01-28T10:42:58.124Z,32.47
2019-01-28T10:45:26.847Z,31.37
2019-01-28T10:48:00.493Z,34.30
2019-01-28T10:50:27.453Z,39.43
2019-01-28T10:52:56.577Z,40.23
2019-01-28T10:55:26.772Z,37.67
2019-01-28T10:57:56.291Z,38.20
2019-01-28T11:00:30.842Z,36.60
2019-01-28T11:03:00.115Z,34.77
2019-01-28T11:05:28.933Z,34.27
2019-01-28T11:07:57.760Z,33.63
2019-01-28T11:10:28.563Z,33.60
2019-01-28T11:12:57.520Z,36.03
2019-01-28T11:15:28.331Z,38.80
2019-01-28T11:17:58.086Z,38.27
2019-01-28T11:20:27.111Z,38.30
2019-01-28T11:22:55.825Z,38.43
2019-01-28T11:25:27.533Z,38.97
2019-01-28T11:27:56.615Z,41.07
2019-01-28T11:30:29.812Z,40.50
2019-01-28T11:32:58.683Z,38.57
2019-01-28T11:35:27.633Z,35.20
2019-01-28T11:37:56.527Z,33.50
2019-01-28T11:40:25.526Z,33.20
2019-01-28T11:42:54.256Z,31.87
2019-01-28T11:45:32.224Z,31.40
2019-01-28T11:48:00.963Z,35.00
2019-01-28T11:50:29.691Z,31.30
2019-01-28T11:52:58.691Z,33.40
2019-01-28T11:55:27.418Z,30.23
2019-01-28T11:57:56.143Z,33.80
2019-01-28T12:00:35.436Z,34.20
2019-01-28T12:03:04.361Z,32.07
2019-01-28T12:05:33.082Z,28.87
2019-01-28T12:08:01.941Z,30.77
2019-01-28T12:10:30.671Z,32.30
2019-01-28T12:12:59.396Z,34.33
2019-01-28T12:15:28.233Z,36.87
2019-01-28T12:17:56.961Z,31.60
2019-01-28T12:20:25.693Z,33.30
2019-01-28T12:22:54.442Z,34.23
2019-01-28T12:25:23.167Z,33.50
2019-01-28T12:27:51.888Z,36.33
2019-01-28T12:30:30.775Z,40.47
2019-01-28T12:32:59.491Z,38.47
2019-01-28T12:35:28.213Z,41.67
2019-01-28T12:37:56.967Z,41.43
2019-01-28T12:40:25.810Z,36.53
2019-01-28T12:42:54.620Z,37.47
2019-01-28T12:45:27.768Z,37.03
2019-01-28T12:47:56.592Z,39.13
2019-01-28T12:50:26.316Z,37.90
2019-01-28T12:52:55.209Z,34.47
2019-01-28T12:55:25.347Z,33.63
2019-01-28T12:57:54.304Z,39.30
2019-01-28T13:00:35.863Z,33.97
2019-01-28T13:03:05.832Z,42.20
2019-01-28T13:05:34.575Z,42.47
2019-01-28T13:08:03.678Z,40.57
2019-01-28T13:10:32.683Z,35.27
2019-01-28T13:13:01.407Z,34.53
2019-01-28T13:15:35.278Z,34.20
2019-01-28T13:18:04.410Z,35.43
2019-01-28T13:20:33.242Z,34.00
2019-01-28T13:23:02.037Z,32.97
2019-01-28T13:25:36.135Z,33.70
2019-01-28T13:28:06.056Z,36.00
2019-01-28T13:30:39.915Z,31.47
2019-01-28T13:33:11.337Z,35.03
2019-01-28T13:35:40.076Z,38.13
2019-01-28T13:38:09.047Z,34.60
2019-01-28T13:40:37.787Z,34.90
2019-01-28T13:43:06.619Z,35.27
2019-01-28T13:45:35.899Z,36.10
2019-01-28T13:48:07.371Z,36.20
2019-01-28T13:50:36.093Z,37.97
2019-01-28T13:53:05.434Z,37.97
2019-01-28T13:55:34.159Z,36.90
2019-01-28T13:58:02.988Z,41.63
2019-01-28T14:00:32.753Z,40.80
2019-01-28T14:03:01.579Z,38.47
2019-01-28T14:05:30.406Z,36.57
2019-01-28T14:07:59.398Z,33.40
2019-01-28T14:10:28.315Z,34.50
2019-01-28T14:12:57.141Z,36.20
2019-01-28T14:15:28.418Z,40.43
2019-01-28T14:17:57.143Z,39.87
2019-01-28T14:20:28.204Z,43.60
2019-01-28T14:22:57.082Z,49.43
2019-01-28T14:25:26.005Z,55.00
2019-01-28T14:27:54.737Z,66.63
2019-01-28T14:30:30.047Z,50.80
2019-01-28T14:32:58.770Z,42.20
2019-01-28T14:35:27.590Z,52.23
2019-01-28T14:37:56.466Z,49.33
2019-01-28T14:40:26.596Z,51.50
2019-01-28T14:42:55.322Z,69.63
2019-01-28T14:45:24.202Z,59.43
2019-01-28T14:47:52.929Z,47.10
2019-01-28T14:50:36.118Z,50.77
2019-01-28T14:53:05.138Z,78.73
2019-01-28T14:55:33.867Z,65.97
2019-01-28T14:58:02.846Z,73.97
2019-01-28T15:00:34.071Z,64.00
2019-01-28T15:03:02.799Z,84.30
2019-01-28T15:05:31.580Z,99.80
2019-01-28T15:08:00.331Z,101.60
2019-01-28T15:10:30.686Z,102.80
2019-01-28T15:12:59.591Z,75.50
2019-01-28T15:15:33.320Z,53.90
2019-01-28T15:18:02.045Z,98.70
2019-01-28T15:20:31.185Z,76.73
2019-01-28T15:22:59.918Z,88.30
2019-01-28T15:25:28.751Z,163.80
2019-01-28T15:27:58.099Z,98.03
2019-01-28T15:30:29.147Z,97.30
2019-01-28T15:32:58.605Z,105.50
2019-01-28T15:35:27.534Z,120.10
2019-01-28T15:37:56.270Z,107.90
2019-01-28T15:40:32.167Z,92.50
2019-01-28T15:43:01.021Z,101.33
2019-01-28T15:45:35.127Z,104.63
2019-01-28T15:48:04.719Z,101.50
2019-01-28T15:50:33.445Z,97.27
2019-01-28T15:56:08.900Z,135.00
2019-01-28T15:58:37.718Z,155.13
2019-01-28T16:01:06.557Z,144.60
2019-01-28T16:03:35.293Z,183.67
2019-01-28T16:06:04.109Z,184.00
2019-01-28T16:08:32.844Z,158.50
2019-01-28T16:11:01.574Z,173.80
2019-01-28T16:13:30.356Z,167.43
2019-01-28T16:15:59.197Z,190.83
2019-01-28T16:18:34.489Z,220.13
2019-01-28T16:20:58.794Z,186.73
2019-01-28T16:23:27.517Z,158.57
2019-01-28T16:25:56.257Z,178.67
2019-01-28T16:28:25.043Z,175.40
2019-01-28T16:30:53.777Z,199.87
2019-01-28T16:33:22.506Z,199.73
2019-01-28T16:35:51.484Z,211.23
2019-01-28T16:38:20.215Z,202.97
2019-01-28T16:40:48.953Z,214.70
2019-01-28T16:43:18.195Z,250.33
2019-01-28T16:45:46.922Z,298.87
2019-01-28T16:48:15.654Z,325.10
2019-01-28T16:50:44.441Z,358.17
2019-01-28T16:53:13.170Z,348.43
2019-01-28T16:55:41.910Z,350.03
2019-01-28T16:58:11.177Z,352.57
2019-01-28T17:00:41.037Z,326.27
2019-01-28T17:03:10.678Z,331.77
2019-01-28T17:05:40.374Z,250.30
2019-01-28T17:08:09.094Z,242.47
2019-01-28T17:10:37.853Z,253.17
2019-01-28T17:13:07.112Z,223.33
2019-01-28T17:15:35.952Z,181.83
2019-01-28T17:18:05.524Z,196.80
2019-01-28T17:20:35.875Z,176.10
2019-01-28T17:23:05.195Z,183.93
2019-01-28T17:25:45.467Z,179.57
2019-01-28T17:28:14.200Z,159.43
2019-01-28T17:30:48.058Z,156.37
2019-01-28T17:33:17.014Z,131.20
2019-01-28T17:35:45.758Z,158.23
2019-01-28T17:38:14.489Z,92.53
2019-01-28T17:40:43.446Z,91.63
2019-01-28T17:43:12.671Z,88.67
2019-01-28T17:45:41.512Z,114.83
2019-01-28T17:48:10.506Z,129.40
2019-01-28T17:50:43.814Z,141.70
2019-01-28T17:53:09.802Z,146.40
2019-01-28T17:55:38.588Z,114.73
2019-01-28T17:58:07.621Z,105.67
2019-01-28T18:00:47.573Z,141.43
2019-01-28T18:03:16.304Z,123.27
2019-01-28T18:05:45.040Z,120.53
2019-01-28T18:08:13.913Z,149.47
2019-01-28T18:10:42.647Z,161.80
2019-01-28T18:13:11.378Z,234.00
2019-01-28T18:15:40.150Z,198.13
2019-01-28T18:18:08.882Z,198.23
2019-01-28T18:20:37.746Z,217.00
2019-01-28T18:23:06.943Z,171.07
2019-01-28T18:25:36.578Z,161.23
2019-01-28T18:28:06.416Z,206.07
2019-01-28T18:30:41.591Z,207.60
2019-01-28T18:33:10.433Z,236.27
2019-01-28T18:35:39.174Z,185.03
2019-01-28T18:38:08.363Z,212.80
2019-01-28T18:40:38.153Z,212.10
2019-01-28T18:43:07.691Z,253.50
2019-01-28T18:45:36.695Z,240.17
2019-01-28T18:48:06.531Z,252.00
2019-01-28T18:50:35.271Z,231.80
2019-01-28T18:53:04.209Z,248.97
2019-01-28T18:55:32.950Z,232.03
2019-01-28T18:58:01.693Z,210.63
2019-01-28T19:00:32.369Z,213.80
2019-01-28T19:03:01.104Z,221.67
2019-01-28T19:05:34.488Z,274.00
2019-01-28T19:08:04.947Z,284.30
2019-01-28T19:10:35.247Z,220.57
2019-01-28T19:13:05.654Z,184.63
2019-01-28T19:15:36.083Z,202.63
2019-01-28T19:18:06.900Z,178.63
2019-01-28T19:20:37.196Z,175.63
2019-01-28T19:23:05.982Z,168.63
2019-01-28T19:25:34.718Z,136.73
2019-01-28T19:28:03.464Z,134.80
2019-01-28T19:30:32.589Z,132.13
2019-01-28T19:33:01.328Z,129.93
2019-01-28T19:35:30.063Z,134.47
2019-01-28T19:37:58.949Z,293.70
2019-01-28T19:40:27.688Z,179.47
2019-01-28T19:42:56.421Z,221.03
2019-01-28T19:45:25.219Z,229.47
2019-01-28T19:47:53.960Z,132.30
2019-01-28T19:50:22.808Z,120.73
2019-01-28T19:52:51.653Z,118.80
2019-01-28T19:55:20.686Z,129.67
2019-01-28T19:57:49.468Z,127.17
2019-01-28T20:00:21.307Z,128.53
2019-01-28T20:02:50.043Z,149.13
2019-01-28T20:05:18.773Z,130.93
2019-01-28T20:07:47.561Z,122.33
2019-01-28T20:10:16.296Z,120.57
2019-01-28T20:12:45.034Z,135.63
2019-01-28T20:15:17.015Z,96.20
2019-01-28T20:17:45.842Z,100.23
2019-01-28T20:20:17.450Z,122.43
2019-01-28T20:22:46.355Z,95.87
2019-01-28T20:25:19.342Z,95.53
2019-01-28T20:27:48.071Z,168.37
2019-01-28T20:30:22.241Z,91.23
2019-01-28T20:32:50.975Z,100.17
2019-01-28T20:35:19.833Z,98.47
2019-01-28T20:37:48.913Z,102.27
2019-01-28T20:40:17.844Z,92.83
2019-01-28T20:42:46.574Z,92.93
2019-01-28T20:45:20.992Z,92.53
2019-01-28T20:47:49.727Z,92.50
2019-01-28T20:50:29.834Z,95.90
2019-01-28T20:52:58.548Z,86.03
2019-01-28T20:55:27.320Z,66.47
2019-01-28T20:57:56.249Z,58.90
2019-01-28T21:00:29.354Z,62.37
2019-01-28T21:02:58.194Z,66.10
2019-01-28T21:05:27.721Z,61.37
2019-01-28T21:07:56.480Z,56.13
2019-01-28T21:10:25.303Z,59.27
2019-01-28T21:12:54.766Z,58.10
2019-01-28T21:15:24.463Z,73.37
2019-01-28T21:17:53.200Z,104.20
2019-01-28T21:20:23.091Z,101.27
2019-01-28T21:22:52.118Z,150.70
2019-01-28T21:25:28.821Z,218.40
2019-01-28T21:27:57.560Z,169.07
2019-01-28T21:30:31.685Z,160.43
2019-01-28T21:33:00.537Z,223.33
2019-01-28T21:35:34.449Z,229.47
2019-01-28T21:38:04.749Z,138.37
2019-01-28T21:40:33.853Z,125.43
2019-01-28T21:43:02.587Z,122.50
2019-01-28T21:45:31.424Z,138.53
2019-01-28T21:48:00.342Z,143.13
2019-01-28T21:50:29.073Z,148.03
2019-01-28T21:52:57.805Z,177.87
2019-01-28T21:55:26.779Z,204.30
2019-01-28T21:57:55.514Z,109.17
2019-01-28T22:00:24.247Z,116.47
2019-01-28T22:02:53.145Z,140.60
2019-01-28T22:05:21.887Z,145.07
2019-01-28T22:07:50.618Z,137.40
2019-01-28T22:10:19.511Z,126.87
2019-01-28T22:12:48.247Z,139.97
2019-01-28T22:15:20.267Z,121.20
2019-01-28T22:17:50.285Z,94.97
2019-01-28T22:20:19.020Z,85.83
2019-01-28T22:22:47.747Z,102.70
2019-01-28T22:25:17.533Z,206.57
2019-01-28T22:27:46.258Z,165.47
2019-01-28T22:30:17.867Z,171.07
2019-01-28T22:32:46.722Z,134.27
2019-01-28T22:35:16.426Z,139.43
2019-01-28T22:37:45.155Z,137.23
2019-01-28T22:40:18.632Z,133.70
2019-01-28T22:42:47.363Z,102.77
2019-01-28T22:45:20.204Z,102.73
2019-01-28T22:47:49.764Z,101.70
2019-01-28T22:50:20.601Z,169.63
2019-01-28T22:52:49.431Z,123.07
2019-01-28T22:55:22.790Z,97.30
2019-01-28T22:57:51.522Z,99.57
2019-01-28T23:00:39.918Z,99.33
2019-01-28T23:03:08.849Z,104.90
2019-01-28T23:05:37.587Z,114.77
2019-01-28T23:08:06.588Z,99.90
2019-01-28T23:10:36.794Z,106.10
2019-01-28T23:13:06.229Z,166.83
2019-01-28T23:15:35.231Z,108.17
2019-01-28T23:18:04.164Z,92.83
2019-01-28T23:20:32.886Z,86.77
2019-01-28T23:23:01.660Z,117.47
2019-01-28T23:25:30.394Z,115.60
2019-01-28T23:27:59.123Z,105.57
2019-01-28T23:30:27.925Z,143.80
2019-01-28T23:32:56.761Z,115.90
2019-01-28T23:35:25.583Z,85.97
2019-01-28T23:37:54.651Z,72.87
2019-01-28T23:40:23.380Z,50.77
2019-01-28T23:42:53.829Z,48.90
2019-01-28T23:45:23.142Z,44.77
2019-01-28T23:47:51.874Z,44.67
2019-01-28T23:50:20.602Z,43.53
2019-01-28T23:52:49.449Z,46.13
2019-01-28T23:55:18.188Z,74.37
2019-01-28T23:57:46.904Z,57.07
